createdAt,value
2018-08-19T00:03:57.653Z,101602.00
2018-08-19T00:09:07.184Z,101604.00
2018-08-19T00:14:30.628Z,101604.00
2018-08-19T00:19:35.729Z,101604.00
2018-08-19T00:24:39.798Z,101606.00
2018-08-19T00:29:43.633Z,101602.00
2018-08-19T00:34:47.464Z,101606.00
2018-08-19T00:39:52.837Z,101603.00
2018-08-19T00:44:57.017Z,101604.00
2018-08-19T00:50:03.145Z,101597.00
2018-08-19T00:55:07.211Z,101596.00
2018-08-19T01:00:11.044Z,101596.00
2018-08-19T01:05:15.112Z,101593.00
2018-08-19T01:10:19.266Z,101580.00
2018-08-19T01:15:23.364Z,101580.00
2018-08-19T01:20:27.470Z,101584.00
2018-08-19T01:25:31.546Z,101579.00
2018-08-19T01:30:35.373Z,101582.00
2018-08-19T01:35:40.483Z,101578.00
2018-08-19T01:40:44.548Z,101575.00
2018-08-19T01:45:48.440Z,101575.00
2018-08-19T01:50:52.522Z,101582.00
2018-08-19T01:55:56.597Z,101579.00
2018-08-19T02:01:00.953Z,101580.00
2018-08-19T02:06:05.315Z,101574.00
2018-08-19T02:11:26.540Z,101574.00
2018-08-19T02:16:30.629Z,101578.00
2018-08-19T02:21:34.701Z,101583.00
2018-08-19T02:26:38.797Z,101577.00
2018-08-19T02:31:42.897Z,101586.00
2018-08-19T02:36:46.961Z,101584.00
2018-08-19T02:41:51.066Z,101586.00
2018-08-19T02:46:55.252Z,101584.00
2018-08-19T02:51:59.117Z,101587.00
2018-08-19T02:57:03.189Z,101586.00
2018-08-19T03:02:43.685Z,101583.00
2018-08-19T03:07:48.389Z,101581.00
2018-08-19T03:12:52.224Z,101580.00
2018-08-19T03:17:56.305Z,101581.00
2018-08-19T03:23:00.376Z,101576.00
2018-08-19T03:28:04.498Z,101581.00
2018-08-19T03:33:11.644Z,101568.00
2018-08-19T03:38:15.654Z,101568.00
2018-08-19T03:43:19.768Z,101564.00
2018-08-19T03:48:23.749Z,101563.00
2018-08-19T03:53:28.492Z,101557.00
2018-08-19T03:58:32.492Z,101560.00
2018-08-19T04:03:36.494Z,101566.00
2018-08-19T04:08:45.752Z,101561.00
2018-08-19T04:13:49.808Z,101564.00
2018-08-19T04:19:01.242Z,101561.00
2018-08-19T04:24:05.279Z,101554.00
2018-08-19T04:29:13.481Z,101549.00
2018-08-19T04:34:17.499Z,101555.00
2018-08-19T04:39:21.767Z,101564.00
2018-08-19T04:44:25.566Z,101563.00
2018-08-19T04:49:29.606Z,101567.00
2018-08-19T04:54:33.712Z,101570.00
2018-08-19T04:59:38.034Z,101569.00
2018-08-19T05:04:41.837Z,101567.00
2018-08-19T05:09:46.038Z,101566.00
2018-08-19T05:14:50.334Z,101570.00
2018-08-19T05:20:19.133Z,101570.00
2018-08-19T05:25:23.123Z,101579.00
2018-08-19T05:30:27.182Z,101587.00
2018-08-19T05:35:32.221Z,101589.00
2018-08-19T05:40:36.222Z,101592.00
2018-08-19T05:45:44.550Z,101595.00
2018-08-19T05:50:48.390Z,101590.00
2018-08-19T05:55:52.554Z,101587.00
2018-08-19T06:01:00.656Z,101589.00
2018-08-19T06:06:04.820Z,101584.00
2018-08-19T06:11:08.808Z,101574.00
2018-08-19T06:16:12.589Z,101582.00
2018-08-19T06:21:16.439Z,101579.00
2018-08-19T06:26:24.779Z,101579.00
2018-08-19T06:31:28.566Z,101580.00
2018-08-19T06:36:33.043Z,101585.00
2018-08-19T06:41:36.795Z,101586.00
2018-08-19T06:46:40.590Z,101576.00
2018-08-19T06:51:44.594Z,101574.00
2018-08-19T06:56:48.654Z,101573.00
2018-08-19T07:01:52.890Z,101578.00
2018-08-19T07:06:56.752Z,101579.00
2018-08-19T07:12:11.811Z,101571.00
2018-08-19T07:17:16.130Z,101575.00
2018-08-19T07:22:21.505Z,101567.00
2018-08-19T07:27:25.437Z,101573.00
2018-08-19T07:32:29.555Z,101569.00
2018-08-19T07:37:34.490Z,101564.00
2018-08-19T07:42:38.535Z,101561.00
2018-08-19T07:47:42.591Z,101562.00
2018-08-19T07:52:46.680Z,101560.00
2018-08-19T07:57:50.727Z,101560.00
2018-08-19T08:02:55.023Z,101556.00
2018-08-19T08:07:59.082Z,101561.00
2018-08-19T08:13:08.415Z,101559.00
2018-08-19T08:18:13.009Z,101563.00
2018-08-19T08:23:24.171Z,101564.00
2018-08-19T08:28:28.189Z,101562.00
2018-08-19T08:33:32.434Z,101560.00
2018-08-19T08:38:36.585Z,101566.00
2018-08-19T08:43:40.396Z,101564.00
2018-08-19T08:48:44.157Z,101563.00
2018-08-19T08:53:48.519Z,101566.00
2018-08-19T08:58:52.289Z,101564.00
2018-08-19T09:03:56.300Z,101561.00
2018-08-19T09:09:00.086Z,101561.00
2018-08-19T09:14:04.217Z,101553.00
2018-08-19T09:19:08.190Z,101542.00
2018-08-19T09:24:12.298Z,101545.00
2018-08-19T09:29:16.300Z,101546.00
2018-08-19T09:34:20.330Z,101532.00
2018-08-19T09:39:24.346Z,101531.00
2018-08-19T09:44:28.136Z,101521.00
2018-08-19T09:49:32.175Z,101513.00
2018-08-19T09:54:36.955Z,101505.00
2018-08-19T09:59:41.046Z,101504.00
2018-08-19T10:04:45.063Z,101496.00
2018-08-19T10:09:48.850Z,101488.00
2018-08-19T10:14:53.567Z,101479.00
2018-08-19T10:19:57.414Z,101480.00
2018-08-19T10:25:03.507Z,101470.00
2018-08-19T10:30:07.351Z,101468.00
2018-08-19T10:35:17.892Z,101464.00
2018-08-19T10:40:21.688Z,101447.00
2018-08-19T10:45:25.489Z,101442.00
2018-08-19T10:50:30.218Z,101438.00
2018-08-19T10:55:34.137Z,101437.00
2018-08-19T11:00:38.191Z,101424.00
2018-08-19T11:05:43.422Z,101423.00
2018-08-19T11:10:47.531Z,101414.00
2018-08-19T11:15:52.690Z,101406.00
2018-08-19T11:20:59.965Z,101401.00
2018-08-19T11:26:04.109Z,101387.00
2018-08-19T11:31:19.064Z,101374.00
2018-08-19T11:36:31.955Z,101368.00
2018-08-19T11:41:36.383Z,101360.00
2018-08-19T11:46:40.454Z,101359.00
2018-08-19T11:51:56.679Z,101354.00
2018-08-19T11:57:08.517Z,101350.00
2018-08-19T12:02:21.818Z,101334.00
2018-08-19T12:07:25.985Z,101335.00
2018-08-19T12:12:45.960Z,101334.00
2018-08-19T12:17:50.500Z,101332.00
2018-08-19T12:22:54.554Z,101314.00
2018-08-19T12:27:58.384Z,101308.00
2018-08-19T12:33:13.779Z,101308.00
2018-08-19T12:38:18.474Z,101283.00
2018-08-19T12:43:22.623Z,101285.00
2018-08-19T12:48:27.087Z,101282.00
2018-08-19T12:53:32.991Z,101264.00
2018-08-19T12:58:36.796Z,101259.00
2018-08-19T13:03:40.879Z,101253.00
2018-08-19T13:08:44.922Z,101250.00
2018-08-19T13:13:49.008Z,101242.00
2018-08-19T13:18:53.075Z,101231.00
2018-08-19T13:23:57.218Z,101229.00
2018-08-19T13:29:01.266Z,101225.00
2018-08-19T13:34:05.394Z,101218.00
2018-08-19T13:39:09.537Z,101218.00
2018-08-19T13:44:13.315Z,101214.00
2018-08-19T13:49:25.389Z,101201.00
2018-08-19T13:54:29.187Z,101195.00
2018-08-19T13:59:33.238Z,101184.00
2018-08-19T14:04:37.265Z,101184.00
2018-08-19T14:09:41.394Z,101180.00
2018-08-19T14:14:45.472Z,101180.00
2018-08-19T14:19:49.532Z,101169.00
2018-08-19T14:24:53.542Z,101178.00
2018-08-19T14:29:57.411Z,101176.00
2018-08-19T14:35:02.614Z,101182.00
2018-08-19T14:40:08.869Z,101181.00
2018-08-19T14:45:12.645Z,101182.00
2018-08-19T14:50:18.692Z,101174.00
2018-08-19T14:55:22.747Z,101178.00
2018-08-19T15:00:26.802Z,101171.00
2018-08-19T15:05:30.862Z,101171.00
2018-08-19T15:10:35.353Z,101164.00
2018-08-19T15:15:39.393Z,101167.00
2018-08-19T15:20:43.193Z,101152.00
2018-08-19T15:25:47.034Z,101157.00
2018-08-19T15:30:51.085Z,101149.00
2018-08-19T15:35:55.229Z,101145.00
2018-08-19T15:40:59.195Z,101151.00
2018-08-19T15:46:03.247Z,101140.00
2018-08-19T15:51:10.426Z,101142.00
2018-08-19T15:56:14.472Z,101140.00
2018-08-19T16:01:33.465Z,101136.00
2018-08-19T16:06:37.530Z,101134.00
2018-08-19T16:11:41.811Z,101135.00
2018-08-19T16:16:46.142Z,101134.00
2018-08-19T16:21:51.397Z,101133.00
2018-08-19T16:26:55.443Z,101128.00
2018-08-19T16:31:59.493Z,101128.00
2018-08-19T16:37:03.825Z,101125.00
2018-08-19T16:42:07.630Z,101122.00
2018-08-19T16:47:11.679Z,101118.00
2018-08-19T16:52:15.481Z,101119.00
2018-08-19T16:57:19.681Z,101119.00
2018-08-19T17:02:23.362Z,101119.00
2018-08-19T17:07:27.468Z,101120.00
2018-08-19T17:12:31.502Z,101115.00
2018-08-19T17:17:35.574Z,101122.00
2018-08-19T17:22:39.497Z,101120.00
2018-08-19T17:27:43.386Z,101115.00
2018-08-19T17:32:55.519Z,101112.00
2018-08-19T17:37:59.377Z,101118.00
2018-08-19T17:43:03.851Z,101121.00
2018-08-19T17:48:07.907Z,101122.00
2018-08-19T17:53:11.741Z,101119.00
2018-08-19T17:58:15.775Z,101121.00
2018-08-19T18:03:19.808Z,101123.00
2018-08-19T18:08:23.846Z,101128.00
2018-08-19T18:13:28.372Z,101133.00
2018-08-19T18:18:32.904Z,101134.00
2018-08-19T18:23:36.970Z,101137.00
2018-08-19T18:28:48.453Z,101140.00
2018-08-19T18:33:57.949Z,101145.00
2018-08-19T18:39:02.492Z,101152.00
2018-08-19T18:44:08.626Z,101156.00
2018-08-19T18:49:14.981Z,101154.00
2018-08-19T18:54:27.041Z,101152.00
2018-08-19T18:59:30.905Z,101152.00
2018-08-19T19:04:35.610Z,101154.00
2018-08-19T19:09:44.931Z,101155.00
2018-08-19T19:14:49.050Z,101154.00
2018-08-19T19:19:52.869Z,101153.00
2018-08-19T19:24:56.716Z,101153.00
2018-08-19T19:30:04.773Z,101151.00
2018-08-19T19:35:13.355Z,101159.00
2018-08-19T19:40:20.165Z,101158.00
2018-08-19T19:45:24.346Z,101158.00
2018-08-19T19:50:28.133Z,101163.00
2018-08-19T19:55:32.129Z,101162.00
2018-08-19T20:00:50.661Z,101161.00
2018-08-19T20:05:54.744Z,101161.00
2018-08-19T20:10:58.786Z,101161.00
2018-08-19T20:16:02.814Z,101160.00
2018-08-19T20:21:10.869Z,101161.00
2018-08-19T20:26:14.960Z,101169.00
2018-08-19T20:31:19.006Z,101171.00
2018-08-19T20:36:22.847Z,101169.00
2018-08-19T20:41:27.630Z,101170.00
2018-08-19T20:46:31.870Z,101178.00
2018-08-19T20:51:35.909Z,101188.00
2018-08-19T20:56:39.982Z,101188.00
2018-08-19T21:01:43.796Z,101189.00
2018-08-19T21:06:47.814Z,101197.00
2018-08-19T21:11:51.614Z,101197.00
2018-08-19T21:16:55.661Z,101200.00
2018-08-19T21:21:59.504Z,101208.00
2018-08-19T21:27:04.130Z,101206.00
2018-08-19T21:32:07.945Z,101209.00
2018-08-19T21:37:12.429Z,101209.00
2018-08-19T21:42:16.446Z,101212.00
2018-08-19T21:47:20.507Z,101213.00
2018-08-19T21:52:24.543Z,101212.00
2018-08-19T21:57:28.445Z,101209.00
2018-08-19T22:02:37.926Z,101213.00
2018-08-19T22:07:42.033Z,101211.00
2018-08-19T22:12:49.053Z,101211.00
2018-08-19T22:17:53.169Z,101216.00
2018-08-19T22:22:57.229Z,101223.00
2018-08-19T22:28:01.301Z,101222.00
2018-08-19T22:33:05.422Z,101220.00
2018-08-19T22:38:13.546Z,101216.00
2018-08-19T22:43:18.738Z,101222.00
2018-08-19T22:48:38.555Z,101223.00
2018-08-19T22:53:42.569Z,101232.00
2018-08-19T22:58:46.578Z,101222.00
2018-08-19T23:04:00.132Z,101230.00
2018-08-19T23:09:04.993Z,101228.00
2018-08-19T23:14:20.296Z,101225.00
2018-08-19T23:19:24.095Z,101223.00
2018-08-19T23:24:28.098Z,101221.00
2018-08-19T23:29:31.890Z,101224.00
2018-08-19T23:34:35.936Z,101220.00
2018-08-19T23:39:39.995Z,101217.00
2018-08-19T23:44:43.794Z,101210.00
2018-08-19T23:49:47.655Z,101213.00
2018-08-19T23:54:51.780Z,101215.00
2018-08-19T23:59:55.839Z,101214.00
